Time;durP1;ratioP1;P1;durP2;ratioP2;P2;SDS_P1;SDS_P2;PMS_P1;PMS_P2;Temp;Humidity;BMP_temperature;BMP_pressure;BME280_temperature;BME280_humidity;BME280_pressure;Samples;Min_cycle;Max_cycle;Signal;HPM_P1;HPM_P2
2022/09/30 00:00:28;;;;;;;3.50;2.60;;;;;;;;;;4992734;28;20218;-81
2022/09/30 00:02:54;;;;;;;2.40;2.20;;;;;;;;;;4976888;28;20194;-81
2022/09/30 00:05:20;;;;;;;2.97;2.10;;;;;;;;;;4976715;28;20188;-80
2022/09/30 00:07:46;;;;;;;2.60;2.10;;;;;;;;;;4976753;28;20316;-80
2022/09/30 00:10:13;;;;;;;3.10;2.23;;;;;;;;;;4976406;28;20686;-81
2022/09/30 00:12:40;;;;;;;2.80;2.30;;;;;;;;;;4994197;28;20174;-80
2022/09/30 00:15:06;;;;;;;2.77;2.20;;;;;;;;;;4992749;28;20178;-81
2022/09/30 00:17:33;;;;;;;2.73;2.20;;;;;;;;;;4992557;28;20723;-80
2022/09/30 00:19:58;;;;;;;2.63;2.13;;;;;;;;;;4976394;28;20631;-81
2022/09/30 00:22:24;;;;;;;2.60;2.40;;;;;;;;;;4976537;28;20266;-80
2022/09/30 00:24:50;;;;;;;2.90;2.00;;;;;;;;;;4992708;28;20190;-80
2022/09/30 00:27:17;;;;;;;2.60;2.13;;;;;;;;;;4976420;28;20209;-80
2022/09/30 00:29:44;;;;;;;2.40;2.20;;;;;;;;;;4992576;28;20704;-80
2022/09/30 00:32:10;;;;;;;2.87;2.30;;;;;;;;;;4993994;28;20235;-80
2022/09/30 00:34:36;;;;;;;2.60;2.27;;;;;;;;;;4993004;28;20272;-80
2022/09/30 00:37:02;;;;;;;5.93;2.70;;;;;;;;;;4992880;28;20178;-80
2022/09/30 00:39:28;;;;;;;4.10;2.50;;;;;;;;;;4976622;28;20188;-80
2022/09/30 00:41:58;;;;;;;3.80;2.30;;;;;;;;;;4992604;28;20178;-80
2022/09/30 00:44:44;;;;;;;3.87;2.60;;;;;;;;;;4992932;28;20182;-81
2022/09/30 00:47:29;;;;;;;5.10;2.57;;;;;;;;;;4993860;28;20181;-80
2022/09/30 00:49:57;;;;;;;10.40;2.57;;;;;;;;;;4992543;28;20215;-80
2022/09/30 00:52:23;;;;;;;3.03;2.50;;;;;;;;;;4992451;28;20177;-80
2022/09/30 00:54:50;;;;;;;8.37;2.70;;;;;;;;;;4976504;28;20184;-80
2022/09/30 00:57:17;;;;;;;2.47;2.27;;;;;;;;;;4976578;28;20202;-80
2022/09/30 00:59:46;;;;;;;4.37;2.60;;;;;;;;;;4992750;28;20210;-80
2022/09/30 01:02:13;;;;;;;3.63;2.20;;;;;;;;;;4992605;28;20181;-80
2022/09/30 01:04:41;;;;;;;4.43;2.40;;;;;;;;;;4992666;28;20191;-81
2022/09/30 01:07:07;;;;;;;3.73;2.80;;;;;;;;;;4976273;28;20184;-80
2022/09/30 01:09:35;;;;;;;4.00;2.40;;;;;;;;;;4992234;28;20210;-80
2022/09/30 01:12:06;;;;;;;3.43;2.37;;;;;;;;;;4992837;28;20665;-80
2022/09/30 01:14:32;;;;;;;7.03;2.83;;;;;;;;;;4993174;28;20180;-80
2022/09/30 01:17:09;;;;;;;2.63;2.27;;;;;;;;;;4976417;28;20178;-80
2022/09/30 01:19:57;;;;;;;7.60;3.40;;;;;;;;;;4992787;28;20178;-81
2022/09/30 01:22:36;;;;;;;4.70;2.80;;;;;;;;;;4994003;28;20172;-81
2022/09/30 01:25:14;;;;;;;9.50;3.03;;;;;;;;;;4992645;28;20186;-80
2022/09/30 01:27:49;;;;;;;7.63;2.70;;;;;;;;;;4992513;28;20206;-80
2022/09/30 01:30:19;;;;;;;4.97;2.13;;;;;;;;;;4992396;28;20208;-80
2022/09/30 01:32:48;;;;;;;9.97;3.00;;;;;;;;;;4992647;28;20177;-79
2022/09/30 01:35:14;;;;;;;12.43;3.10;;;;;;;;;;4992870;28;20188;-80
2022/09/30 01:37:52;;;;;;;16.33;3.07;;;;;;;;;;4993134;28;20291;-80
2022/09/30 01:40:22;;;;;;;6.27;2.63;;;;;;;;;;4993740;28;20173;-80
2022/09/30 01:42:53;;;;;;;6.00;2.60;;;;;;;;;;4993005;28;20176;-81
2022/09/30 01:45:23;;;;;;;15.00;2.63;;;;;;;;;;4992711;28;20177;-80
2022/09/30 01:47:53;;;;;;;6.53;2.73;;;;;;;;;;4994062;28;20192;-80
2022/09/30 01:50:25;;;;;;;4.07;2.30;;;;;;;;;;4992702;28;20203;-80
2022/09/30 01:52:58;;;;;;;6.07;2.60;;;;;;;;;;4992673;28;20563;-80
2022/09/30 01:55:27;;;;;;;4.43;2.60;;;;;;;;;;4992678;28;20177;-79
2022/09/30 01:58:02;;;;;;;5.60;2.50;;;;;;;;;;4993127;28;20204;-80
2022/09/30 02:00:30;;;;;;;4.17;2.70;;;;;;;;;;4992647;28;20177;-80
2022/09/30 02:03:09;;;;;;;3.20;2.60;;;;;;;;;;4976982;28;20208;-81
2022/09/30 02:05:37;;;;;;;5.47;2.70;;;;;;;;;;4992609;28;20191;-80
2022/09/30 02:08:05;;;;;;;9.50;2.70;;;;;;;;;;4976595;28;20219;-80
2022/09/30 02:10:38;;;;;;;8.30;2.73;;;;;;;;;;4995292;28;20208;-79
2022/09/30 02:13:09;;;;;;;5.50;2.73;;;;;;;;;;4996331;28;20267;-79
2022/09/30 02:15:37;;;;;;;6.40;2.70;;;;;;;;;;4997485;28;20224;-80
2022/09/30 02:18:06;;;;;;;10.70;2.83;;;;;;;;;;4996202;28;20259;-79
2022/09/30 02:20:38;;;;;;;4.80;2.53;;;;;;;;;;4996133;28;20188;-80
2022/09/30 02:23:14;;;;;;;7.67;2.80;;;;;;;;;;4995971;28;20185;-80
2022/09/30 02:25:54;;;;;;;7.63;2.70;;;;;;;;;;4995860;28;20203;-79
2022/09/30 02:28:25;;;;;;;4.87;2.83;;;;;;;;;;4996038;28;20254;-80
2022/09/30 02:30:53;;;;;;;13.80;3.07;;;;;;;;;;4979683;28;20215;-79
2022/09/30 02:33:22;;;;;;;7.40;2.67;;;;;;;;;;4979999;28;20347;-80
2022/09/30 02:36:07;;;;;;;5.03;2.60;;;;;;;;;;4995574;28;20651;-79
2022/09/30 02:38:36;;;;;;;6.30;2.80;;;;;;;;;;4995558;28;20191;-80
2022/09/30 02:41:05;;;;;;;5.43;2.67;;;;;;;;;;4979382;28;20181;-79
2022/09/30 02:43:32;;;;;;;3.97;2.90;;;;;;;;;;4995471;28;20266;-79
2022/09/30 02:46:06;;;;;;;4.43;2.57;;;;;;;;;;4979146;28;20275;-79
2022/09/30 02:48:43;;;;;;;14.47;3.17;;;;;;;;;;4995216;28;20235;-79
2022/09/30 02:51:37;;;;;;;14.27;3.00;;;;;;;;;;4996402;28;20234;-79
2022/09/30 02:54:10;;;;;;;6.40;2.80;;;;;;;;;;4995512;28;20238;-79
2022/09/30 02:56:45;;;;;;;9.77;2.93;;;;;;;;;;4995155;28;20176;-79
2022/09/30 02:59:11;;;;;;;12.77;2.80;;;;;;;;;;4995024;28;20661;-79
2022/09/30 03:01:40;;;;;;;4.70;2.40;;;;;;;;;;4995077;28;20180;-81
2022/09/30 03:04:07;;;;;;;9.37;2.70;;;;;;;;;;4979257;28;20248;-79
2022/09/30 03:06:34;;;;;;;8.90;2.90;;;;;;;;;;4978955;28;20184;-80
2022/09/30 03:09:01;;;;;;;11.20;2.67;;;;;;;;;;4978449;28;20231;-79
2022/09/30 03:11:28;;;;;;;9.70;2.57;;;;;;;;;;4978708;28;20218;-79
2022/09/30 03:14:12;;;;;;;4.37;2.40;;;;;;;;;;4978581;28;20283;-79
2022/09/30 03:16:47;;;;;;;5.27;2.50;;;;;;;;;;4994974;28;20175;-80
2022/09/30 03:19:30;;;;;;;6.97;2.67;;;;;;;;;;4994335;28;20195;-79
2022/09/30 03:22:15;;;;;;;4.17;2.67;;;;;;;;;;4994722;28;20268;-79
2022/09/30 03:25:04;;;;;;;6.47;2.47;;;;;;;;;;4995587;28;20180;-79
2022/09/30 03:27:31;;;;;;;5.17;2.40;;;;;;;;;;4996870;28;20207;-80
2022/09/30 03:30:02;;;;;;;4.20;2.67;;;;;;;;;;4994012;28;20199;-79
2022/09/30 03:32:47;;;;;;;6.13;2.57;;;;;;;;;;4994271;28;20175;-79
2022/09/30 03:35:31;;;;;;;5.83;2.30;;;;;;;;;;4995897;28;20214;-79
2022/09/30 03:38:25;;;;;;;4.67;2.27;;;;;;;;;;4994109;28;20218;-79
2022/09/30 03:41:10;;;;;;;2.23;2.10;;;;;;;;;;4995509;28;20247;-80
2022/09/30 03:43:40;;;;;;;2.60;2.23;;;;;;;;;;4994539;28;20179;-80
2022/09/30 03:46:15;;;;;;;8.37;2.60;;;;;;;;;;4994428;28;20654;-79
2022/09/30 03:48:42;;;;;;;11.83;2.53;;;;;;;;;;4994315;28;20198;-79
2022/09/30 03:51:09;;;;;;;6.93;2.50;;;;;;;;;;4993739;28;20218;-79
2022/09/30 03:53:41;;;;;;;7.03;2.43;;;;;;;;;;4993882;28;20266;-80
2022/09/30 03:56:07;;;;;;;11.53;2.70;;;;;;;;;;4994080;28;20186;-79
2022/09/30 03:58:34;;;;;;;3.53;2.43;;;;;;;;;;4977857;28;20207;-79
2022/09/30 04:01:00;;;;;;;3.13;2.40;;;;;;;;;;4993920;28;20650;-79
2022/09/30 04:03:27;;;;;;;6.30;2.20;;;;;;;;;;4993828;28;20212;-79
2022/09/30 04:05:53;;;;;;;2.40;2.20;;;;;;;;;;4994132;28;20180;-79
2022/09/30 04:08:19;;;;;;;7.00;2.30;;;;;;;;;;4977875;28;20295;-80
2022/09/30 04:10:45;;;;;;;2.20;2.00;;;;;;;;;;4993736;28;20235;-79
2022/09/30 04:13:12;;;;;;;4.57;2.30;;;;;;;;;;4994145;28;20226;-79
2022/09/30 04:15:39;;;;;;;7.53;2.60;;;;;;;;;;4994101;28;20266;-79
2022/09/30 04:18:05;;;;;;;7.63;3.53;;;;;;;;;;4993670;28;20254;-80
2022/09/30 04:20:32;;;;;;;6.10;2.50;;;;;;;;;;4994702;28;20184;-79
2022/09/30 04:22:58;;;;;;;4.97;2.60;;;;;;;;;;4993828;28;20187;-79
2022/09/30 04:25:24;;;;;;;7.53;2.27;;;;;;;;;;4993797;28;20254;-79
2022/09/30 04:27:50;;;;;;;7.67;2.23;;;;;;;;;;4993333;28;20199;-79
2022/09/30 04:30:17;;;;;;;6.70;2.00;;;;;;;;;;4977226;28;20203;-79
2022/09/30 04:32:44;;;;;;;5.57;2.23;;;;;;;;;;4977734;28;20184;-79
2022/09/30 04:35:11;;;;;;;4.10;2.20;;;;;;;;;;4993669;28;20188;-79
2022/09/30 04:37:40;;;;;;;5.07;2.20;;;;;;;;;;4993761;28;20199;-79
2022/09/30 04:40:08;;;;;;;2.57;2.10;;;;;;;;;;4993632;28;20242;-79
2022/09/30 04:42:34;;;;;;;4.67;2.23;;;;;;;;;;4977640;28;20190;-79
2022/09/30 04:45:02;;;;;;;2.40;2.20;;;;;;;;;;4995028;28;20547;-79
2022/09/30 04:47:29;;;;;;;8.27;2.27;;;;;;;;;;4977629;28;20290;-80
2022/09/30 04:49:56;;;;;;;3.33;2.20;;;;;;;;;;4977087;28;20743;-79
2022/09/30 04:52:22;;;;;;;3.30;2.20;;;;;;;;;;4993463;28;20176;-79
2022/09/30 04:54:48;;;;;;;7.07;5.00;;;;;;;;;;4993300;28;20191;-79
2022/09/30 04:57:14;;;;;;;3.37;1.87;;;;;;;;;;4977513;28;20176;-79
2022/09/30 04:59:40;;;;;;;3.60;2.20;;;;;;;;;;4977359;28;20183;-80
2022/09/30 05:02:06;;;;;;;14.80;3.80;;;;;;;;;;4977565;28;20176;-80
2022/09/30 05:04:32;;;;;;;11.00;2.30;;;;;;;;;;4993153;28;20175;-79
2022/09/30 05:07:00;;;;;;;4.23;2.20;;;;;;;;;;4994908;28;20639;-78
2022/09/30 05:09:26;;;;;;;5.83;2.57;;;;;;;;;;4985456;23;20260;-78
2022/09/30 05:11:52;;;;;;;7.03;2.20;;;;;;;;;;4994402;28;20551;-78
2022/09/30 05:14:18;;;;;;;4.90;2.20;;;;;;;;;;4978622;28;20181;-78
2022/09/30 05:16:44;;;;;;;13.93;2.93;;;;;;;;;;4978565;28;20214;-78
2022/09/30 05:19:10;;;;;;;3.30;2.30;;;;;;;;;;4978576;28;20290;-78
2022/09/30 05:21:36;;;;;;;7.83;2.47;;;;;;;;;;4974935;28;20187;-78
2022/09/30 05:24:02;;;;;;;7.73;2.10;;;;;;;;;;4974863;28;20216;-78
2022/09/30 05:26:28;;;;;;;6.37;2.13;;;;;;;;;;4990830;28;20238;-78
2022/09/30 05:28:54;;;;;;;4.67;2.20;;;;;;;;;;4973398;28;20209;-78
2022/09/30 05:31:20;;;;;;;3.07;1.80;;;;;;;;;;4973073;28;20208;-78
2022/09/30 05:33:46;;;;;;;1.93;1.73;;;;;;;;;;4972698;28;20250;-78
2022/09/30 05:36:14;;;;;;;2.03;1.80;;;;;;;;;;4988781;28;20264;-78
2022/09/30 05:38:40;;;;;;;1.80;1.70;;;;;;;;;;4972768;28;20200;-78
2022/09/30 05:41:07;;;;;;;2.43;2.10;;;;;;;;;;4988631;28;20657;-79
2022/09/30 05:43:33;;;;;;;3.70;1.80;;;;;;;;;;4972104;28;20181;-78
2022/09/30 05:45:59;;;;;;;2.20;1.50;;;;;;;;;;4975861;28;20172;-78
2022/09/30 05:48:25;;;;;;;1.53;1.40;;;;;;;;;;4975366;28;20210;-78
2022/09/30 05:50:55;;;;;;;1.67;1.57;;;;;;;;;;4976039;28;20577;-78
2022/09/30 05:53:21;;;;;;;2.07;1.80;;;;;;;;;;4992932;28;20178;-80
2022/09/30 05:55:49;;;;;;;1.70;1.60;;;;;;;;;;4992502;28;20599;-80
2022/09/30 05:58:15;;;;;;;2.20;1.90;;;;;;;;;;4976278;28;20201;-80
2022/09/30 06:00:42;;;;;;;1.97;1.87;;;;;;;;;;4992400;28;20188;-81
2022/09/30 06:03:08;;;;;;;2.10;1.80;;;;;;;;;;4992239;28;20192;-79
2022/09/30 06:05:34;;;;;;;2.27;2.07;;;;;;;;;;4992504;28;20198;-81
2022/09/30 06:08:00;;;;;;;1.93;1.80;;;;;;;;;;4992314;28;20273;-79
2022/09/30 06:10:27;;;;;;;2.00;1.70;;;;;;;;;;4977193;28;20217;-81
2022/09/30 06:12:53;;;;;;;3.30;2.10;;;;;;;;;;4976871;28;20269;-79
2022/09/30 06:15:19;;;;;;;2.27;2.00;;;;;;;;;;4976665;28;20205;-79
2022/09/30 06:17:45;;;;;;;3.77;2.30;;;;;;;;;;4976524;28;20305;-78
2022/09/30 06:20:11;;;;;;;3.77;2.23;;;;;;;;;;4975664;28;20542;-78
2022/09/30 06:22:37;;;;;;;19.73;3.07;;;;;;;;;;4991662;28;20621;-79
2022/09/30 06:25:05;;;;;;;5.97;2.30;;;;;;;;;;4992822;28;20223;-81
2022/09/30 06:27:33;;;;;;;4.60;2.10;;;;;;;;;;4993733;28;20663;-78
2022/09/30 06:29:59;;;;;;;8.67;2.40;;;;;;;;;;4993598;28;20197;-79
2022/09/30 06:32:25;;;;;;;2.97;2.40;;;;;;;;;;4977561;28;20184;-79
2022/09/30 06:34:54;;;;;;;3.17;2.40;;;;;;;;;;4994294;28;20628;-79
2022/09/30 06:37:20;;;;;;;8.57;2.60;;;;;;;;;;4993316;28;20176;-79
2022/09/30 06:39:46;;;;;;;3.50;2.47;;;;;;;;;;4977036;28;20195;-79
2022/09/30 06:42:12;;;;;;;10.77;2.70;;;;;;;;;;4977723;28;20191;-79
2022/09/30 06:44:38;;;;;;;3.63;2.30;;;;;;;;;;4977001;28;20188;-79
2022/09/30 06:47:04;;;;;;;3.37;2.23;;;;;;;;;;4977417;28;20188;-79
2022/09/30 06:49:30;;;;;;;2.40;2.00;;;;;;;;;;4976997;28;20298;-79
2022/09/30 06:51:59;;;;;;;2.07;1.87;;;;;;;;;;4977402;28;20184;-79
2022/09/30 06:54:27;;;;;;;2.40;2.20;;;;;;;;;;4977668;28;20181;-79
2022/09/30 06:56:54;;;;;;;2.97;2.30;;;;;;;;;;4977102;28;20231;-79
2022/09/30 06:59:20;;;;;;;2.80;2.20;;;;;;;;;;4977777;28;20200;-79
2022/09/30 07:01:46;;;;;;;3.57;2.20;;;;;;;;;;4993536;28;20177;-80
2022/09/30 07:04:12;;;;;;;6.90;2.47;;;;;;;;;;4976987;28;20239;-79
2022/09/30 07:06:39;;;;;;;4.33;2.37;;;;;;;;;;4977312;28;20239;-79
2022/09/30 07:09:06;;;;;;;2.37;2.17;;;;;;;;;;4992069;28;20215;-79
2022/09/30 07:11:32;;;;;;;4.10;2.60;;;;;;;;;;4976865;28;20227;-79
2022/09/30 07:13:57;;;;;;;3.17;2.63;;;;;;;;;;4977278;28;20279;-79
2022/09/30 07:16:26;;;;;;;3.00;2.70;;;;;;;;;;4977350;28;20192;-79
2022/09/30 07:18:53;;;;;;;2.70;2.50;;;;;;;;;;4992826;28;20193;-79
2022/09/30 07:21:19;;;;;;;2.77;2.57;;;;;;;;;;4992921;28;20234;-79
2022/09/30 07:23:46;;;;;;;4.00;2.80;;;;;;;;;;4976553;28;20552;-79
2022/09/30 07:26:12;;;;;;;2.90;2.70;;;;;;;;;;4976349;28;20184;-79
2022/09/30 07:28:39;;;;;;;3.70;2.60;;;;;;;;;;4977209;28;20766;-79
2022/09/30 07:31:10;;;;;;;3.33;2.90;;;;;;;;;;4975612;28;20310;-80
2022/09/30 07:33:37;;;;;;;3.67;3.30;;;;;;;;;;4991467;28;20643;-79
2022/09/30 07:36:04;;;;;;;3.00;2.70;;;;;;;;;;4992490;28;20176;-80
2022/09/30 07:38:31;;;;;;;3.27;2.97;;;;;;;;;;4991137;28;20203;-79
2022/09/30 07:40:57;;;;;;;3.40;2.70;;;;;;;;;;4975879;28;20571;-80
2022/09/30 07:43:23;;;;;;;3.07;2.83;;;;;;;;;;4991993;28;20691;-79
2022/09/30 07:45:50;;;;;;;3.50;3.20;;;;;;;;;;4975172;28;20184;-80
2022/09/30 07:51:01;;;;;;;3.60;3.30;;;;;;;;;;4976111;28;20239;-80
2022/09/30 08:13:25;;;;;;;9.33;4.47;;;;;;;;;;4971596;28;20234;-79
2022/09/30 08:15:51;;;;;;;8.33;4.27;;;;;;;;;;4984720;28;20182;-79
2022/09/30 08:18:17;;;;;;;4.53;3.80;;;;;;;;;;4962815;28;20189;-79
2022/09/30 08:20:43;;;;;;;5.63;3.50;;;;;;;;;;4959020;28;20187;-79
2022/09/30 08:23:09;;;;;;;4.70;3.93;;;;;;;;;;4956654;28;20209;-79
2022/09/30 08:25:35;;;;;;;6.17;4.20;;;;;;;;;;4957383;28;20188;-80
2022/09/30 08:28:01;;;;;;;4.60;3.83;;;;;;;;;;4960186;28;20248;-80
2022/09/30 08:30:27;;;;;;;4.50;4.10;;;;;;;;;;4961082;28;20208;-79
2022/09/30 08:32:53;;;;;;;7.23;5.67;;;;;;;;;;4982243;28;20209;-79
2022/09/30 08:35:19;;;;;;;5.60;5.10;;;;;;;;;;4970568;28;20182;-79
2022/09/30 08:37:45;;;;;;;7.17;4.60;;;;;;;;;;4976240;28;20214;-79
2022/09/30 08:40:20;;;;;;;5.33;4.30;;;;;;;;;;4990028;28;20222;-79
2022/09/30 08:42:46;;;;;;;4.83;4.10;;;;;;;;;;4984916;28;20214;-79
2022/09/30 08:45:31;;;;;;;4.73;4.10;;;;;;;;;;4992061;28;20191;-79
2022/09/30 08:48:06;;;;;;;4.47;4.07;;;;;;;;;;4984354;28;20187;-79
2022/09/30 08:50:35;;;;;;;3.90;3.60;;;;;;;;;;4988323;28;20257;-79
2022/09/30 08:53:15;;;;;;;3.97;3.57;;;;;;;;;;4991883;28;20227;-79
2022/09/30 08:55:42;;;;;;;4.10;3.70;;;;;;;;;;4992256;28;20262;-79
2022/09/30 08:58:28;;;;;;;3.37;3.07;;;;;;;;;;4992037;28;20690;-79
2022/09/30 09:00:57;;;;;;;3.23;2.97;;;;;;;;;;4991603;28;20602;-79
2022/09/30 09:03:27;;;;;;;3.83;3.50;;;;;;;;;;4992986;28;20659;-79
2022/09/30 09:06:06;;;;;;;3.57;3.27;;;;;;;;;;4992058;28;20179;-79
2022/09/30 09:08:47;;;;;;;4.27;3.40;;;;;;;;;;4982017;28;20223;-79
2022/09/30 09:11:20;;;;;;;3.97;3.60;;;;;;;;;;4952334;28;20215;-79
2022/09/30 09:13:50;;;;;;;5.10;4.50;;;;;;;;;;4952924;28;20733;-79
2022/09/30 09:16:36;;;;;;;4.50;3.90;;;;;;;;;;4952858;28;20601;-79
2022/09/30 09:19:10;;;;;;;6.27;4.50;;;;;;;;;;4955710;28;20619;-79
2022/09/30 09:21:42;;;;;;;5.10;4.60;;;;;;;;;;4958139;28;20231;-79
2022/09/30 09:24:17;;;;;;;4.77;4.33;;;;;;;;;;4956940;28;20184;-79
2022/09/30 09:26:43;;;;;;;5.13;4.40;;;;;;;;;;4957327;28;20195;-79
2022/09/30 09:29:19;;;;;;;5.10;4.60;;;;;;;;;;4957044;28;20249;-79
2022/09/30 09:31:47;;;;;;;5.47;4.83;;;;;;;;;;4956614;28;20244;-79
2022/09/30 09:34:13;;;;;;;6.17;4.67;;;;;;;;;;4941046;29;20185;-79
2022/09/30 09:36:46;;;;;;;7.73;4.70;;;;;;;;;;4956510;28;20240;-79
2022/09/30 09:39:18;;;;;;;5.37;4.43;;;;;;;;;;4956923;28;20219;-79
2022/09/30 09:41:51;;;;;;;4.83;4.33;;;;;;;;;;4956583;28;20296;-79
2022/09/30 09:44:26;;;;;;;5.17;3.70;;;;;;;;;;4956777;28;20195;-79
2022/09/30 09:47:04;;;;;;;7.07;4.00;;;;;;;;;;4956474;28;20187;-80
2022/09/30 09:49:37;;;;;;;5.17;3.67;;;;;;;;;;4956935;29;20651;-79
2022/09/30 09:52:12;;;;;;;4.50;3.33;;;;;;;;;;4956585;28;20204;-79
2022/09/30 09:54:41;;;;;;;4.17;3.40;;;;;;;;;;4956450;28;20184;-79
2022/09/30 09:57:10;;;;;;;4.80;3.67;;;;;;;;;;4956431;28;20181;-79
2022/09/30 09:59:38;;;;;;;4.37;3.87;;;;;;;;;;4956345;28;20177;-79
2022/09/30 10:02:21;;;;;;;4.83;4.33;;;;;;;;;;4956332;28;20248;-79
2022/09/30 10:04:49;;;;;;;5.30;4.80;;;;;;;;;;4956291;28;20228;-79
2022/09/30 10:07:19;;;;;;;5.47;4.60;;;;;;;;;;4956296;28;20224;-79
2022/09/30 10:09:45;;;;;;;6.73;4.37;;;;;;;;;;4956311;28;20177;-81
2022/09/30 10:12:11;;;;;;;5.77;3.40;;;;;;;;;;4956244;28;20205;-79
2022/09/30 10:14:55;;;;;;;4.37;3.47;;;;;;;;;;4956323;28;20595;-78
2022/09/30 10:17:25;;;;;;;4.60;3.80;;;;;;;;;;4956918;28;20177;-78
2022/09/30 10:19:58;;;;;;;5.40;4.60;;;;;;;;;;4956107;28;20173;-79
2022/09/30 10:22:26;;;;;;;4.37;3.97;;;;;;;;;;4957274;28;20197;-79
2022/09/30 10:25:08;;;;;;;5.17;4.03;;;;;;;;;;4956216;28;20177;-80
2022/09/30 10:27:34;;;;;;;5.57;5.00;;;;;;;;;;4956367;28;20280;-82
2022/09/30 10:30:00;;;;;;;6.20;4.70;;;;;;;;;;4939316;29;20209;-79
2022/09/30 10:32:27;;;;;;;4.13;3.63;;;;;;;;;;4955467;28;20197;-78
2022/09/30 10:34:59;;;;;;;5.67;4.70;;;;;;;;;;4955316;28;20173;-79
2022/09/30 10:37:25;;;;;;;6.87;5.40;;;;;;;;;;4955762;28;20184;-80
2022/09/30 10:39:51;;;;;;;6.10;5.27;;;;;;;;;;4939862;29;20185;-79
2022/09/30 10:42:22;;;;;;;6.17;5.40;;;;;;;;;;4955857;28;20252;-79
2022/09/30 10:44:48;;;;;;;4.80;4.30;;;;;;;;;;4956119;28;20197;-79
2022/09/30 10:47:16;;;;;;;5.93;4.50;;;;;;;;;;4956270;28;20663;-79
2022/09/30 10:49:48;;;;;;;5.67;3.47;;;;;;;;;;4940635;29;20287;-78
2022/09/30 10:52:18;;;;;;;5.00;3.90;;;;;;;;;;4939895;29;20205;-79
2022/09/30 10:55:13;;;;;;;6.37;4.47;;;;;;;;;;4957343;28;20629;-79
2022/09/30 10:57:39;;;;;;;4.57;3.70;;;;;;;;;;4942710;28;20185;-80
2022/09/30 11:00:08;;;;;;;3.13;2.83;;;;;;;;;;4939536;29;20204;-80
2022/09/30 11:02:47;;;;;;;2.70;2.43;;;;;;;;;;4972100;28;20210;-79
2022/09/30 11:05:12;;;;;;;4.13;2.67;;;;;;;;;;4976248;28;20560;-79
2022/09/30 11:07:58;;;;;;;3.50;2.37;;;;;;;;;;4991583;28;20199;-78
2022/09/30 11:10:27;;;;;;;2.63;2.27;;;;;;;;;;4991163;28;20738;-79
2022/09/30 11:12:59;;;;;;;2.33;2.00;;;;;;;;;;4990140;28;20614;-79
2022/09/30 11:15:28;;;;;;;4.50;2.60;;;;;;;;;;4990527;28;20178;-78
2022/09/30 11:17:57;;;;;;;2.73;2.40;;;;;;;;;;4990309;28;20264;-78
2022/09/30 11:20:25;;;;;;;2.77;1.97;;;;;;;;;;4990334;28;20550;-79
2022/09/30 11:22:54;;;;;;;4.43;2.40;;;;;;;;;;4990169;28;20204;-79
2022/09/30 11:25:46;;;;;;;3.30;2.07;;;;;;;;;;4974000;28;20181;-78
2022/09/30 11:28:19;;;;;;;4.77;2.37;;;;;;;;;;4973427;28;20197;-79
2022/09/30 11:31:01;;;;;;;1.90;1.80;;;;;;;;;;4990125;28;20215;-78
2022/09/30 11:33:36;;;;;;;4.80;2.10;;;;;;;;;;4990077;28;20173;-78
2022/09/30 11:36:02;;;;;;;2.93;1.90;;;;;;;;;;4989861;28;20206;-79
2022/09/30 11:38:34;;;;;;;2.40;1.80;;;;;;;;;;4990254;28;20204;-78
2022/09/30 11:41:19;;;;;;;2.90;1.90;;;;;;;;;;4989283;28;20176;-78
2022/09/30 11:43:45;;;;;;;2.73;2.53;;;;;;;;;;4989278;28;20180;-79
2022/09/30 11:46:24;;;;;;;2.87;2.20;;;;;;;;;;4989823;28;20634;-78
2022/09/30 11:49:05;;;;;;;2.77;2.10;;;;;;;;;;4989722;28;20180;-78
2022/09/30 11:51:36;;;;;;;2.47;1.90;;;;;;;;;;4989540;28;20223;-78
2022/09/30 11:54:21;;;;;;;2.77;1.70;;;;;;;;;;4989834;28;20253;-79
2022/09/30 11:56:55;;;;;;;4.83;2.80;;;;;;;;;;4989941;28;20180;-79
2022/09/30 11:59:27;;;;;;;2.70;2.40;;;;;;;;;;4989765;28;20231;-78
2022/09/30 12:01:55;;;;;;;1.97;1.57;;;;;;;;;;4989555;28;20231;-79
2022/09/30 12:04:28;;;;;;;2.43;1.97;;;;;;;;;;4989578;28;20631;-79
2022/09/30 12:06:58;;;;;;;3.40;2.40;;;;;;;;;;4989269;28;20207;-78
2022/09/30 12:09:26;;;;;;;4.23;2.97;;;;;;;;;;4973574;28;20180;-79
2022/09/30 12:11:55;;;;;;;3.10;2.90;;;;;;;;;;4989293;28;20222;-78
2022/09/30 12:14:35;;;;;;;3.13;2.13;;;;;;;;;;4989375;28;20278;-78
2022/09/30 12:17:04;;;;;;;3.20;2.50;;;;;;;;;;4989514;28;20180;-78
2022/09/30 12:19:40;;;;;;;2.77;2.50;;;;;;;;;;4973455;28;20181;-79
2022/09/30 12:22:19;;;;;;;3.90;2.50;;;;;;;;;;4989257;28;20291;-79
2022/09/30 12:24:45;;;;;;;4.83;2.47;;;;;;;;;;4989475;28;20184;-82
2022/09/30 12:27:18;;;;;;;3.07;1.90;;;;;;;;;;4989389;28;20187;-80
2022/09/30 12:30:16;;;;;;;2.00;1.60;;;;;;;;;;4989280;28;20172;-79
2022/09/30 12:33:04;;;;;;;2.60;1.40;;;;;;;;;;4974058;28;20292;-79
2022/09/30 12:35:31;;;;;;;1.43;1.20;;;;;;;;;;4989573;28;20267;-79
2022/09/30 12:38:03;;;;;;;2.40;1.33;;;;;;;;;;4974780;28;20204;-79
2022/09/30 12:40:41;;;;;;;2.10;1.60;;;;;;;;;;4989494;28;20184;-79
2022/09/30 12:43:21;;;;;;;2.27;1.67;;;;;;;;;;4989111;28;20210;-79
2022/09/30 12:45:59;;;;;;;2.30;1.70;;;;;;;;;;4989341;28;20176;-84
2022/09/30 12:48:38;;;;;;;2.47;1.70;;;;;;;;;;4989953;28;20276;-80
2022/09/30 12:51:04;;;;;;;2.40;1.60;;;;;;;;;;4988918;28;20203;-80
2022/09/30 12:53:32;;;;;;;1.93;1.40;;;;;;;;;;4972685;28;20183;-80
2022/09/30 12:56:02;;;;;;;1.30;1.20;;;;;;;;;;4973317;28;20184;-80
2022/09/30 12:58:31;;;;;;;1.70;1.30;;;;;;;;;;4989155;28;20208;-80
2022/09/30 13:01:05;;;;;;;1.60;1.20;;;;;;;;;;4989374;28;20243;-79
2022/09/30 13:03:43;;;;;;;1.40;1.30;;;;;;;;;;4989528;28;20206;-80
2022/09/30 13:06:09;;;;;;;1.80;1.20;;;;;;;;;;4989344;28;20258;-80
2022/09/30 13:08:43;;;;;;;1.50;1.20;;;;;;;;;;4973387;28;20188;-80
2022/09/30 13:11:30;;;;;;;1.90;1.43;;;;;;;;;;4972787;28;20207;-80
2022/09/30 13:14:16;;;;;;;2.40;1.50;;;;;;;;;;4989200;28;20243;-80
2022/09/30 13:17:00;;;;;;;1.43;1.33;;;;;;;;;;4972316;28;20188;-80
2022/09/30 13:19:35;;;;;;;2.20;1.60;;;;;;;;;;4988877;28;20180;-80
2022/09/30 13:22:19;;;;;;;2.20;1.33;;;;;;;;;;4989227;28;20204;-80
2022/09/30 13:24:55;;;;;;;2.50;1.50;;;;;;;;;;4988930;28;20279;-80
2022/09/30 13:27:32;;;;;;;1.73;1.30;;;;;;;;;;4988939;28;20340;-80
2022/09/30 13:29:59;;;;;;;2.17;1.50;;;;;;;;;;4989278;28;20180;-80
2022/09/30 13:32:33;;;;;;;2.13;1.50;;;;;;;;;;4988851;28;20200;-80
2022/09/30 13:34:59;;;;;;;1.93;1.30;;;;;;;;;;4972668;28;20181;-80
2022/09/30 13:37:31;;;;;;;2.37;1.30;;;;;;;;;;4972861;28;20198;-80
2022/09/30 13:39:59;;;;;;;1.60;1.50;;;;;;;;;;4989017;28;20232;-79
2022/09/30 13:42:28;;;;;;;3.20;1.50;;;;;;;;;;4972643;28;20201;-80
2022/09/30 13:45:15;;;;;;;3.80;1.77;;;;;;;;;;4988849;28;20187;-80
2022/09/30 13:47:56;;;;;;;1.80;1.70;;;;;;;;;;4988819;28;20183;-80
2022/09/30 13:50:33;;;;;;;3.50;1.80;;;;;;;;;;4988837;28;20291;-80
2022/09/30 13:53:01;;;;;;;1.77;1.63;;;;;;;;;;4988668;28;20291;-80
2022/09/30 13:55:36;;;;;;;2.77;1.40;;;;;;;;;;4989154;28;20176;-80
2022/09/30 13:58:08;;;;;;;1.67;1.50;;;;;;;;;;4972809;28;20180;-79
2022/09/30 14:00:54;;;;;;;1.60;1.50;;;;;;;;;;4989009;28;20184;-80
2022/09/30 14:03:23;;;;;;;2.00;1.80;;;;;;;;;;4988879;28;20184;-80
2022/09/30 14:06:03;;;;;;;2.13;1.60;;;;;;;;;;4990519;28;20184;-80
2022/09/30 14:08:49;;;;;;;4.10;1.60;;;;;;;;;;4992327;28;20211;-80
2022/09/30 14:11:33;;;;;;;2.17;1.30;;;;;;;;;;4992115;28;20295;-80
2022/09/30 14:14:09;;;;;;;2.90;1.70;;;;;;;;;;4992362;28;20651;-80
2022/09/30 14:16:57;;;;;;;2.37;1.60;;;;;;;;;;4992653;28;20184;-80
2022/09/30 14:19:32;;;;;;;2.80;2.10;;;;;;;;;;4992268;28;20254;-80
2022/09/30 14:22:02;;;;;;;2.03;1.67;;;;;;;;;;4977126;28;20276;-80
2022/09/30 14:24:29;;;;;;;5.17;1.93;;;;;;;;;;4992300;28;20235;-80
2022/09/30 14:27:04;;;;;;;2.87;1.83;;;;;;;;;;5010513;23;20251;-79
2022/09/30 14:29:39;;;;;;;2.17;1.93;;;;;;;;;;4995116;28;20167;-79
2022/09/30 14:32:25;;;;;;;2.00;1.80;;;;;;;;;;4994466;28;20218;-80
2022/09/30 14:34:52;;;;;;;2.00;1.63;;;;;;;;;;4995024;28;20175;-80
2022/09/30 14:37:29;;;;;;;2.67;1.60;;;;;;;;;;4979098;28;20200;-80
2022/09/30 14:39:55;;;;;;;1.40;1.30;;;;;;;;;;4978942;28;20716;-80
2022/09/30 14:42:28;;;;;;;2.45;1.45;;;;;;;;;;4994681;28;20704;-80
2022/09/30 14:44:55;;;;;;;1.90;1.20;;;;;;;;;;4994931;28;20246;-80
2022/09/30 14:47:21;;;;;;;1.50;1.10;;;;;;;;;;4995209;28;20195;-80
2022/09/30 14:49:48;;;;;;;1.75;1.40;;;;;;;;;;4994515;28;20175;-80
2022/09/30 14:52:34;;;;;;;1.55;1.40;;;;;;;;;;4994617;28;20631;-80
2022/09/30 14:55:00;;;;;;;2.92;1.60;;;;;;;;;;4995940;28;20182;-80
2022/09/30 14:57:26;;;;;;;2.13;1.50;;;;;;;;;;4994428;28;20195;-80
2022/09/30 15:00:13;;;;;;;1.80;1.30;;;;;;;;;;4978552;28;20175;-80
2022/09/30 15:02:43;;;;;;;2.07;1.10;;;;;;;;;;4993664;28;20603;-79
2022/09/30 15:05:13;;;;;;;1.70;1.30;;;;;;;;;;4994574;28;20259;-79
2022/09/30 15:07:42;;;;;;;2.27;1.30;;;;;;;;;;4994960;28;20225;-78
2022/09/30 15:10:18;;;;;;;2.00;1.30;;;;;;;;;;4979071;28;20203;-79
2022/09/30 15:12:44;;;;;;;2.43;1.40;;;;;;;;;;4994898;28;20175;-79
2022/09/30 15:15:24;;;;;;;2.10;1.40;;;;;;;;;;4995430;28;20267;-79
2022/09/30 15:17:54;;;;;;;3.60;1.60;;;;;;;;;;4994003;28;20203;-79
2022/09/30 15:20:23;;;;;;;1.50;1.40;;;;;;;;;;4994579;28;20571;-79
2022/09/30 15:22:51;;;;;;;1.50;1.30;;;;;;;;;;4994374;28;20176;-79
2022/09/30 15:25:19;;;;;;;2.60;1.47;;;;;;;;;;4978586;28;20187;-79
2022/09/30 15:27:45;;;;;;;2.87;1.40;;;;;;;;;;4994350;28;20242;-79